Waidhofen an der Thaya, Austria
Current Conditions -  °F | °C
As of 11:00 PM on Friday 19 Dec 2014 (Local Time) from LKNA Reporting Station
Overcast Overcast  
Wind Chill: 43°   Ceiling: 7000
Heat Index: 48°   Visibility: 6mi
Dew Point: 45°   Wind: 13mph
Humidity: 87%   Direction: 260°W
Pressure: 29.91"   Gusts: NA
Location:  48.82°N, 15.28°E
Report Text: LKNA 192100Z 26011KT 9999 FEW026 SCT040 OVC070 09/07 Q1013
Loading
Personal Weather Stations






























Interactive Weather Map New forecast layout! Learn more

10-Day Weather Forecast

Advertisements
Track Severe Weather on mobile